sensor_id;sensor_type;location;lat;lon;timestamp;pressure;altitude;pressure_sealevel;temperature;humidity
69245;BME280;56357;52.304;4.870;2023-08-24T00:01:45;102068.34;;;24.11;55.04
69245;BME280;56357;52.304;4.870;2023-08-24T00:04:12;102068.34;;;24.11;55.62
69245;BME280;56357;52.304;4.870;2023-08-24T00:06:38;102066.88;;;24.13;55.12
69245;BME280;56357;52.304;4.870;2023-08-24T00:09:05;102059.25;;;24.14;54.78
69245;BME280;56357;52.304;4.870;2023-08-24T00:11:32;102052.72;;;24.13;55.07
69245;BME280;56357;52.304;4.870;2023-08-24T00:13:58;102052.44;;;24.15;55.35
69245;BME280;56357;52.304;4.870;2023-08-24T00:16:25;102045.97;;;24.09;55.30
69245;BME280;56357;52.304;4.870;2023-08-24T00:18:52;102059.25;;;24.14;55.12
69245;BME280;56357;52.304;4.870;2023-08-24T00:21:30;102060.91;;;24.20;54.95
69245;BME280;56357;52.304;4.870;2023-08-24T00:23:57;102052.72;;;24.13;55.15
69245;BME280;56357;52.304;4.870;2023-08-24T00:26:25;102045.69;;;24.11;55.41
69245;BME280;56357;52.304;4.870;2023-08-24T00:28:51;102036.03;;;24.12;55.06
69245;BME280;56357;52.304;4.870;2023-08-24T00:31:18;102036.66;;;24.09;55.30
69245;BME280;56357;52.304;4.870;2023-08-24T00:33:44;102021.03;;;24.16;55.19
69245;BME280;56357;52.304;4.870;2023-08-24T00:36:11;102021.28;;;24.15;55.30
69245;BME280;56357;52.304;4.870;2023-08-24T00:38:37;102013.41;;;24.12;55.17
69245;BME280;56357;52.304;4.870;2023-08-24T00:41:04;102015.97;;;24.08;55.44
69245;BME280;56357;52.304;4.870;2023-08-24T00:43:31;102020.22;;;24.11;55.30
69245;BME280;56357;52.304;4.870;2023-08-24T00:45:59;102027.31;;;24.08;55.69
69245;BME280;56357;52.304;4.870;2023-08-24T00:48:27;102034.63;;;24.09;55.29
69245;BME280;56357;52.304;4.870;2023-08-24T00:50:56;102029.28;;;24.08;55.47
69245;BME280;56357;52.304;4.870;2023-08-24T00:53:24;102027.00;;;24.10;55.25
69245;BME280;56357;52.304;4.870;2023-08-24T00:55:52;102027.25;;;24.13;55.59
69245;BME280;56357;52.304;4.870;2023-08-24T00:58:20;102024.72;;;24.12;55.04
69245;BME280;56357;52.304;4.870;2023-08-24T01:00:47;102026.44;;;24.08;55.09
69245;BME280;56357;52.304;4.870;2023-08-24T01:03:14;102031.81;;;24.09;55.33
69245;BME280;56357;52.304;4.870;2023-08-24T01:05:42;102028.72;;;24.11;56.10
69245;BME280;56357;52.304;4.870;2023-08-24T01:08:09;102033.25;;;24.07;55.36
69245;BME280;56357;52.304;4.870;2023-08-24T01:10:45;102042.88;;;24.06;55.49
69245;BME280;56357;52.304;4.870;2023-08-24T01:13:21;102031.56;;;24.06;55.56
69245;BME280;56357;52.304;4.870;2023-08-24T01:16:00;102037.81;;;24.03;55.70
69245;BME280;56357;52.304;4.870;2023-08-24T01:18:31;102032.69;;;24.00;55.70
69245;BME280;56357;52.304;4.870;2023-08-24T01:21:01;102042.31;;;23.99;56.30
69245;BME280;56357;52.304;4.870;2023-08-24T01:23:46;102036.41;;;23.95;56.21
69245;BME280;56357;52.304;4.870;2023-08-24T01:26:20;102043.75;;;24.01;56.24
69245;BME280;56357;52.304;4.870;2023-08-24T01:28:47;102036.38;;;24.00;56.52
69245;BME280;56357;52.304;4.870;2023-08-24T01:31:14;102023.63;;;23.98;56.16
69245;BME280;56357;52.304;4.870;2023-08-24T01:33:43;102018.28;;;23.96;56.39
69245;BME280;56357;52.304;4.870;2023-08-24T01:36:11;102003.84;;;23.98;56.23
69245;BME280;56357;52.304;4.870;2023-08-24T01:38:38;101997.59;;;24.01;56.26
69245;BME280;56357;52.304;4.870;2023-08-24T01:41:09;101989.66;;;24.08;55.93
69245;BME280;56357;52.304;4.870;2023-08-24T01:43:36;102001.91;;;23.93;56.47
69245;BME280;56357;52.304;4.870;2023-08-24T01:46:06;102000.44;;;23.96;56.62
69245;BME280;56357;52.304;4.870;2023-08-24T01:48:35;101996.53;;;23.92;56.82
69245;BME280;56357;52.304;4.870;2023-08-24T01:51:04;102001.63;;;23.90;56.85
69245;BME280;56357;52.304;4.870;2023-08-24T01:53:31;102009.22;;;23.94;56.85
69245;BME280;56357;52.304;4.870;2023-08-24T01:55:58;101997.97;;;23.89;56.46
69245;BME280;56357;52.304;4.870;2023-08-24T01:58:25;101993.16;;;23.90;56.63
69245;BME280;56357;52.304;4.870;2023-08-24T02:00:51;102001.09;;;23.88;56.87
69245;BME280;56357;52.304;4.870;2023-08-24T02:03:18;101995.44;;;23.88;56.62
69245;BME280;56357;52.304;4.870;2023-08-24T02:05:46;101987.50;;;23.90;56.46
69245;BME280;56357;52.304;4.870;2023-08-24T02:08:12;101986.63;;;23.89;56.94
69245;BME280;56357;52.304;4.870;2023-08-24T02:10:39;101984.13;;;23.88;56.44
69245;BME280;56357;52.304;4.870;2023-08-24T02:13:05;101981.88;;;23.80;57.25
69245;BME280;56357;52.304;4.870;2023-08-24T02:15:33;101972.31;;;23.71;57.09
69245;BME280;56357;52.304;4.870;2023-08-24T02:18:00;101971.13;;;23.82;56.95
69245;BME280;56357;52.304;4.870;2023-08-24T02:20:26;101970.28;;;23.81;56.99
69245;BME280;56357;52.304;4.870;2023-08-24T02:22:53;101960.69;;;23.77;57.14
69245;BME280;56357;52.304;4.870;2023-08-24T02:25:19;101966.03;;;23.84;57.00
69245;BME280;56357;52.304;4.870;2023-08-24T02:27:46;101970.56;;;23.80;57.12
69245;BME280;56357;52.304;4.870;2023-08-24T02:30:14;101967.75;;;23.75;56.94
69245;BME280;56357;52.304;4.870;2023-08-24T02:35:07;101947.41;;;23.73;57.68
69245;BME280;56357;52.304;4.870;2023-08-24T02:37:34;101940.91;;;23.72;57.42
69245;BME280;56357;52.304;4.870;2023-08-24T02:40:00;101938.97;;;23.68;57.67
69245;BME280;56357;52.304;4.870;2023-08-24T02:42:30;101933.84;;;23.70;57.18
69245;BME280;56357;52.304;4.870;2023-08-24T02:44:57;101941.78;;;23.68;57.36
69245;BME280;56357;52.304;4.870;2023-08-24T02:47:24;101946.84;;;23.71;57.57
69245;BME280;56357;52.304;4.870;2023-08-24T02:49:51;101942.09;;;23.66;57.30
69245;BME280;56357;52.304;4.870;2023-08-24T02:52:18;101941.22;;;23.66;57.25
69245;BME280;56357;52.304;4.870;2023-08-24T02:54:45;101932.78;;;23.60;57.67
69245;BME280;56357;52.304;4.870;2023-08-24T02:57:12;101933.91;;;23.59;57.60
69245;BME280;56357;52.304;4.870;2023-08-24T02:59:40;101929.09;;;23.60;57.50
69245;BME280;56357;52.304;4.870;2023-08-24T03:02:10;101922.03;;;23.57;57.75
69245;BME280;56357;52.304;4.870;2023-08-24T03:04:36;101924.03;;;23.57;57.75
69245;BME280;56357;52.304;4.870;2023-08-24T03:07:03;101921.50;;;23.55;57.63
69245;BME280;56357;52.304;4.870;2023-08-24T03:09:32;101918.66;;;23.55;57.87
69245;BME280;56357;52.304;4.870;2023-08-24T03:11:59;101914.72;;;23.51;57.92
69245;BME280;56357;52.304;4.870;2023-08-24T03:14:25;101911.91;;;23.51;58.08
69245;BME280;56357;52.304;4.870;2023-08-24T03:16:52;101909.06;;;23.51;57.63
69245;BME280;56357;52.304;4.870;2023-08-24T03:19:18;101904.00;;;23.48;57.89
69245;BME280;56357;52.304;4.870;2023-08-24T03:21:45;101903.44;;;23.46;57.99
69245;BME280;56357;52.304;4.870;2023-08-24T03:24:11;101895.28;;;23.45;57.92
69245;BME280;56357;52.304;4.870;2023-08-24T03:26:38;101898.06;;;23.50;58.07
69245;BME280;56357;52.304;4.870;2023-08-24T03:29:05;101888.19;;;23.47;57.90
69245;BME280;56357;52.304;4.870;2023-08-24T03:31:31;101889.91;;;23.43;58.26
69245;BME280;56357;52.304;4.870;2023-08-24T03:33:58;101892.19;;;23.41;57.94
69245;BME280;56357;52.304;4.870;2023-08-24T03:36:25;101898.94;;;23.45;58.12
69245;BME280;56357;52.304;4.870;2023-08-24T03:38:52;101906.28;;;23.46;58.11
69245;BME280;56357;52.304;4.870;2023-08-24T03:41:20;101906.03;;;23.43;58.10
69245;BME280;56357;52.304;4.870;2023-08-24T03:43:47;101903.50;;;23.36;58.28
69245;BME280;56357;52.304;4.870;2023-08-24T03:46:14;101898.97;;;23.40;58.32
69245;BME280;56357;52.304;4.870;2023-08-24T03:48:41;101892.75;;;23.38;58.25
69245;BME280;56357;52.304;4.870;2023-08-24T03:51:07;101895.28;;;23.45;58.21
69245;BME280;56357;52.304;4.870;2023-08-24T03:53:34;101887.09;;;23.43;58.52
69245;BME280;56357;52.304;4.870;2023-08-24T03:56:01;101880.63;;;23.38;58.01
69245;BME280;56357;52.304;4.870;2023-08-24T03:58:27;101883.44;;;23.33;58.62
69245;BME280;56357;52.304;4.870;2023-08-24T04:00:54;101890.53;;;23.35;58.22
69245;BME280;56357;52.304;4.870;2023-08-24T04:03:20;101886.28;;;23.38;58.41
69245;BME280;56357;52.304;4.870;2023-08-24T04:05:47;101892.75;;;23.38;58.21
69245;BME280;56357;52.304;4.870;2023-08-24T04:08:14;101895.03;;;23.36;58.39
69245;BME280;56357;52.304;4.870;2023-08-24T04:10:41;101897.59;;;23.33;58.79
69245;BME280;56357;52.304;4.870;2023-08-24T04:13:07;101904.66;;;23.30;58.74
69245;BME280;56357;52.304;4.870;2023-08-24T04:15:34;101898.75;;;23.32;58.62
69245;BME280;56357;52.304;4.870;2023-08-24T04:18:00;101905.53;;;23.26;58.65
69245;BME280;56357;52.304;4.870;2023-08-24T04:20:27;101901.25;;;23.28;58.35
69245;BME280;56357;52.304;4.870;2023-08-24T04:22:54;101898.16;;;23.30;58.31
69245;BME280;56357;52.304;4.870;2023-08-24T04:25:22;101891.38;;;23.26;58.41
69245;BME280;56357;52.304;4.870;2023-08-24T04:27:49;101885.44;;;23.27;58.80
69245;BME280;56357;52.304;4.870;2023-08-24T04:30:15;101885.13;;;23.29;58.33
69245;BME280;56357;52.304;4.870;2023-08-24T04:32:42;101886.59;;;23.26;58.58
69245;BME280;56357;52.304;4.870;2023-08-24T04:35:09;101886.03;;;23.24;58.41
69245;BME280;56357;52.304;4.870;2023-08-24T04:37:36;101890.53;;;23.25;58.78
69245;BME280;56357;52.304;4.870;2023-08-24T04:40:02;101888.88;;;23.19;58.62
69245;BME280;56357;52.304;4.870;2023-08-24T04:42:29;101890.84;;;23.24;58.52
69245;BME280;56357;52.304;4.870;2023-08-24T04:44:56;101887.72;;;23.25;58.58
69245;BME280;56357;52.304;4.870;2023-08-24T04:47:22;101898.47;;;23.23;58.67
69245;BME280;56357;52.304;4.870;2023-08-24T04:49:49;101892.50;;;23.25;58.93
69245;BME280;56357;52.304;4.870;2023-08-24T04:52:15;101890.84;;;23.24;58.54
69245;BME280;56357;52.304;4.870;2023-08-24T04:54:42;101879.81;;;23.22;58.43
69245;BME280;56357;52.304;4.870;2023-08-24T04:57:09;101884.03;;;23.25;58.85
69245;BME280;56357;52.304;4.870;2023-08-24T04:59:36;101877.25;;;23.21;58.67
69245;BME280;56357;52.304;4.870;2023-08-24T05:02:02;101876.41;;;23.25;58.46
69245;BME280;56357;52.304;4.870;2023-08-24T05:04:29;101870.19;;;23.23;58.54
69245;BME280;56357;52.304;4.870;2023-08-24T05:06:55;101867.97;;;23.20;58.74
69245;BME280;56357;52.304;4.870;2023-08-24T05:09:22;101859.44;;;23.25;58.70
69245;BME280;56357;52.304;4.870;2023-08-24T05:11:49;101865.41;;;23.24;58.58
69245;BME280;56357;52.304;4.870;2023-08-24T05:14:15;101862.31;;;23.20;58.66
69245;BME280;56357;52.304;4.870;2023-08-24T05:16:43;101860.84;;;23.28;58.36
69245;BME280;56357;52.304;4.870;2023-08-24T05:19:10;101853.50;;;23.27;58.65
69245;BME280;56357;52.304;4.870;2023-08-24T05:21:36;101850.09;;;23.30;58.42
69245;BME280;56357;52.304;4.870;2023-08-24T05:24:03;101840.75;;;23.29;58.46
69245;BME280;56357;52.304;4.870;2023-08-24T05:26:31;101834.00;;;23.25;58.51
69245;BME280;56357;52.304;4.870;2023-08-24T05:28:57;101839.34;;;23.27;58.60
69245;BME280;56357;52.304;4.870;2023-08-24T05:31:24;101848.59;;;23.47;57.87
69245;BME280;56357;52.304;4.870;2023-08-24T05:33:50;101841.84;;;23.43;58.29
69245;BME280;56357;52.304;4.870;2023-08-24T05:36:17;101844.69;;;23.38;58.17
69245;BME280;56357;52.304;4.870;2023-08-24T05:38:46;101843.66;;;23.63;58.45
69245;BME280;56357;52.304;4.870;2023-08-24T05:41:35;101833.19;;;23.69;58.29
69245;BME280;56357;52.304;4.870;2023-08-24T05:44:08;101824.22;;;23.56;58.76
69245;BME280;56357;52.304;4.870;2023-08-24T05:46:38;101836.66;;;23.55;58.46
69245;BME280;56357;52.304;4.870;2023-08-24T05:49:14;101835.28;;;23.53;58.82
69245;BME280;56357;52.304;4.870;2023-08-24T05:51:46;101824.78;;;23.53;58.93
69245;BME280;56357;52.304;4.870;2023-08-24T05:54:16;101826.75;;;23.58;58.61
69245;BME280;56357;52.304;4.870;2023-08-24T05:56:59;101820.47;;;23.61;59.06
69245;BME280;56357;52.304;4.870;2023-08-24T05:59:36;101803.38;;;23.47;58.84
69245;BME280;56357;52.304;4.870;2023-08-24T06:02:02;101810.03;;;23.61;59.12
69245;BME280;56357;52.304;4.870;2023-08-24T06:04:29;101801.72;;;23.75;59.29
69245;BME280;56357;52.304;4.870;2023-08-24T06:06:59;101801.38;;;23.82;58.78
69245;BME280;56357;52.304;4.870;2023-08-24T06:09:26;101795.50;;;23.73;59.07
69245;BME280;56357;52.304;4.870;2023-08-24T06:11:54;101800.91;;;24.03;58.44
69245;BME280;56357;52.304;4.870;2023-08-24T06:14:22;101778.53;;;24.07;58.12
69245;BME280;56357;52.304;4.870;2023-08-24T06:16:48;101781.06;;;23.75;58.71
69245;BME280;56357;52.304;4.870;2023-08-24T06:19:15;101775.91;;;23.82;58.38
69245;BME280;56357;52.304;4.870;2023-08-24T06:21:43;101779.06;;;23.80;58.50
69245;BME280;56357;52.304;4.870;2023-08-24T06:24:09;101773.63;;;23.84;58.54
69245;BME280;56357;52.304;4.870;2023-08-24T06:26:36;101778.78;;;23.77;58.60
69245;BME280;56357;52.304;4.870;2023-08-24T06:29:02;101781.88;;;23.80;58.48
69245;BME280;56357;52.304;4.870;2023-08-24T06:31:29;101773.13;;;24.10;57.87
69245;BME280;56357;52.304;4.870;2023-08-24T06:34:00;101771.09;;;24.39;56.83
69245;BME280;56357;52.304;4.870;2023-08-24T06:36:27;101763.84;;;24.52;55.97
69245;BME280;56357;52.304;4.870;2023-08-24T06:38:54;101755.75;;;24.17;57.25
69245;BME280;56357;52.304;4.870;2023-08-24T06:41:21;101756.16;;;24.05;57.44
69245;BME280;56357;52.304;4.870;2023-08-24T06:43:49;101759.91;;;23.96;57.88
69245;BME280;56357;52.304;4.870;2023-08-24T06:46:16;101753.25;;;24.15;57.63
69245;BME280;56357;52.304;4.870;2023-08-24T06:48:42;101756.50;;;23.99;57.99
69245;BME280;56357;52.304;4.870;2023-08-24T06:51:10;101766.44;;;23.96;57.94
69245;BME280;56357;52.304;4.870;2023-08-24T06:53:37;101757.63;;;23.98;58.11
69245;BME280;56357;52.304;4.870;2023-08-24T06:56:04;101756.81;;;23.97;58.15
69245;BME280;56357;52.304;4.870;2023-08-24T06:58:30;101758.78;;;23.97;58.37
69245;BME280;56357;52.304;4.870;2023-08-24T07:00:57;101761.19;;;24.13;57.62
69245;BME280;56357;52.304;4.870;2023-08-24T07:03:28;101771.97;;;24.11;57.35
69245;BME280;56357;52.304;4.870;2023-08-24T07:05:54;101763.78;;;24.10;57.52
69245;BME280;56357;52.304;4.870;2023-08-24T07:08:21;101759.28;;;24.09;57.65
69245;BME280;56357;52.304;4.870;2023-08-24T07:10:48;101758.84;;;24.20;57.59
69245;BME280;56357;52.304;4.870;2023-08-24T07:13:16;101757.22;;;24.14;57.61
69245;BME280;56357;52.304;4.870;2023-08-24T07:15:42;101757.00;;;24.11;57.68
69245;BME280;56357;52.304;4.870;2023-08-24T07:18:10;101741.56;;;24.22;57.51
69245;BME280;56357;52.304;4.870;2023-08-24T07:20:37;101739.38;;;24.14;57.60
69245;BME280;56357;52.304;4.870;2023-08-24T07:23:04;101721.75;;;24.22;57.55
69245;BME280;56357;52.304;4.870;2023-08-24T07:25:30;101733.06;;;24.22;57.33
69245;BME280;56357;52.304;4.870;2023-08-24T07:27:57;101742.03;;;24.29;57.44
69245;BME280;56357;52.304;4.870;2023-08-24T07:30:27;101732.28;;;24.40;56.91
69245;BME280;56357;52.304;4.870;2023-08-24T07:32:54;101723.84;;;24.59;56.30
69245;BME280;56357;52.304;4.870;2023-08-24T07:35:32;101718.78;;;25.16;55.12
69245;BME280;56357;52.304;4.870;2023-08-24T07:38:07;101717.50;;;26.05;52.51
69245;BME280;56357;52.304;4.870;2023-08-24T07:40:33;101708.59;;;26.39;51.32
69245;BME280;56357;52.304;4.870;2023-08-24T07:43:00;101709.63;;;26.57;50.88
69245;BME280;56357;52.304;4.870;2023-08-24T07:45:27;101706.88;;;26.65;50.44
69245;BME280;56357;52.304;4.870;2023-08-24T07:47:54;101703.38;;;26.82;50.21
69245;BME280;56357;52.304;4.870;2023-08-24T07:50:20;101709.81;;;26.87;49.94
69245;BME280;56357;52.304;4.870;2023-08-24T07:52:49;101705.19;;;26.91;49.64
69245;BME280;56357;52.304;4.870;2023-08-24T07:55:19;101705.34;;;27.08;49.13
69245;BME280;56357;52.304;4.870;2023-08-24T07:57:46;101707.00;;;27.09;49.30
69245;BME280;56357;52.304;4.870;2023-08-24T08:00:14;101694.47;;;27.10;49.31
69245;BME280;56357;52.304;4.870;2023-08-24T08:02:41;101675.91;;;27.13;49.38
69245;BME280;56357;52.304;4.870;2023-08-24T08:05:08;101676.38;;;27.29;49.17
69245;BME280;56357;52.304;4.870;2023-08-24T08:07:38;101682.41;;;27.27;49.26
69245;BME280;56357;52.304;4.870;2023-08-24T08:10:08;101676.59;;;27.32;49.08
69245;BME280;56357;52.304;4.870;2023-08-24T08:12:35;101677.13;;;27.34;48.77
69245;BME280;56357;52.304;4.870;2023-08-24T08:15:02;101674.78;;;27.36;48.46
69245;BME280;56357;52.304;4.870;2023-08-24T08:17:29;101679.53;;;27.41;48.74
69245;BME280;56357;52.304;4.870;2023-08-24T08:19:57;101681.84;;;27.39;48.55
69245;BME280;56357;52.304;4.870;2023-08-24T08:22:23;101687.22;;;27.40;48.92
69245;BME280;56357;52.304;4.870;2023-08-24T08:24:51;101685.06;;;27.46;49.02
69245;BME280;56357;52.304;4.870;2023-08-24T08:27:19;101679.38;;;27.46;48.73
69245;BME280;56357;52.304;4.870;2023-08-24T08:29:46;101675.22;;;27.52;48.85
69245;BME280;56357;52.304;4.870;2023-08-24T08:32:13;101671.88;;;27.50;48.77
69245;BME280;56357;52.304;4.870;2023-08-24T08:34:40;101677.00;;;27.39;48.62
69245;BME280;56357;52.304;4.870;2023-08-24T08:37:10;101687.28;;;27.49;48.65
69245;BME280;56357;52.304;4.870;2023-08-24T08:39:39;101666.56;;;27.57;48.46
69245;BME280;56357;52.304;4.870;2023-08-24T08:42:11;101662.72;;;27.53;48.91
69245;BME280;56357;52.304;4.870;2023-08-24T08:44:41;101663.72;;;27.57;48.27
69245;BME280;56357;52.304;4.870;2023-08-24T08:47:13;101659.47;;;27.46;48.62
69245;BME280;56357;52.304;4.870;2023-08-24T08:49:45;101665.91;;;27.60;48.87
69245;BME280;56357;52.304;4.870;2023-08-24T08:52:14;101675.22;;;27.52;48.48
69245;BME280;56357;52.304;4.870;2023-08-24T08:54:40;101667.22;;;27.54;48.56
69245;BME280;56357;52.304;4.870;2023-08-24T08:57:07;101666.88;;;27.55;48.83
69245;BME280;56357;52.304;4.870;2023-08-24T08:59:35;101657.91;;;27.62;48.56
69245;BME280;56357;52.304;4.870;2023-08-24T09:02:03;101648.19;;;27.63;48.62
69245;BME280;56357;52.304;4.870;2023-08-24T09:04:31;101635.97;;;27.62;48.26
69245;BME280;56357;52.304;4.870;2023-08-24T09:06:58;101620.75;;;27.67;48.33
69245;BME280;56357;52.304;4.870;2023-08-24T09:09:26;101611.50;;;27.61;48.73
69245;BME280;56357;52.304;4.870;2023-08-24T09:11:53;101611.47;;;27.53;48.58
69245;BME280;56357;52.304;4.870;2023-08-24T09:14:19;101612.53;;;27.65;48.65
69245;BME280;56357;52.304;4.870;2023-08-24T09:16:47;101606.31;;;27.55;48.94
69245;BME280;56357;52.304;4.870;2023-08-24T09:19:17;101612.19;;;27.58;48.44
69245;BME280;56357;52.304;4.870;2023-08-24T09:21:44;101623.59;;;27.67;48.26
69245;BME280;56357;52.304;4.870;2023-08-24T09:24:11;101629.97;;;27.72;48.50
69245;BME280;56357;52.304;4.870;2023-08-24T09:26:38;101639.53;;;27.68;48.29
69245;BME280;56357;52.304;4.870;2023-08-24T09:29:15;101639.47;;;27.59;48.83
69245;BME280;56357;52.304;4.870;2023-08-24T09:31:43;101630.81;;;27.64;48.37
69245;BME280;56357;52.304;4.870;2023-08-24T09:34:10;101623.06;;;27.65;48.94
69245;BME280;56357;52.304;4.870;2023-08-24T09:36:38;101610.03;;;27.64;48.82
69245;BME280;56357;52.304;4.870;2023-08-24T09:39:05;101599.00;;;27.71;48.42
69245;BME280;56357;52.304;4.870;2023-08-24T09:41:46;101600.28;;;27.56;49.01
69245;BME280;56357;52.304;4.870;2023-08-24T09:44:13;101605.50;;;27.63;48.82
69245;BME280;56357;52.304;4.870;2023-08-24T09:46:42;101594.63;;;27.65;48.88
69245;BME280;56357;52.304;4.870;2023-08-24T09:49:13;101580.09;;;27.66;48.55
69245;BME280;56357;52.304;4.870;2023-08-24T09:51:40;101591.66;;;27.70;48.79
69245;BME280;56357;52.304;4.870;2023-08-24T09:54:10;101585.56;;;27.63;48.77
69245;BME280;56357;52.304;4.870;2023-08-24T09:56:40;101574.00;;;27.59;48.60
69245;BME280;56357;52.304;4.870;2023-08-24T09:59:13;101569.69;;;27.70;48.38
69245;BME280;56357;52.304;4.870;2023-08-24T10:01:44;101569.38;;;27.72;48.25
69245;BME280;56357;52.304;4.870;2023-08-24T10:04:17;101587.63;;;27.71;48.75
69245;BME280;56357;52.304;4.870;2023-08-24T10:06:47;101591.25;;;27.63;48.80
69245;BME280;56357;52.304;4.870;2023-08-24T10:09:22;101608.41;;;27.80;48.26
69245;BME280;56357;52.304;4.870;2023-08-24T10:11:56;101618.97;;;27.79;48.60
69245;BME280;56357;52.304;4.870;2023-08-24T10:14:32;101622.97;;;27.70;48.88
69245;BME280;56357;52.304;4.870;2023-08-24T10:17:03;101617.44;;;27.73;48.64
69245;BME280;56357;52.304;4.870;2023-08-24T10:19:31;101614.25;;;27.75;48.66
69245;BME280;56357;52.304;4.870;2023-08-24T10:22:00;101627.38;;;27.84;48.14
69245;BME280;56357;52.304;4.870;2023-08-24T10:24:27;101631.16;;;27.71;48.48
69245;BME280;56357;52.304;4.870;2023-08-24T10:26:55;101635.63;;;27.64;49.00
69245;BME280;56357;52.304;4.870;2023-08-24T10:29:23;101633.34;;;27.74;48.62
69245;BME280;56357;52.304;4.870;2023-08-24T10:31:51;101639.13;;;27.61;48.79
69245;BME280;56357;52.304;4.870;2023-08-24T10:34:18;101628.41;;;27.58;49.36
69245;BME280;56357;52.304;4.870;2023-08-24T10:36:47;101627.47;;;27.71;48.76
69245;BME280;56357;52.304;4.870;2023-08-24T10:39:14;101625.81;;;26.81;50.86
69245;BME280;56357;52.304;4.870;2023-08-24T10:41:52;101620.75;;;25.88;53.83
69245;BME280;56357;52.304;4.870;2023-08-24T10:44:34;101617.88;;;25.75;54.18
69245;BME280;56357;52.304;4.870;2023-08-24T10:47:11;101612.22;;;25.75;54.41
69245;BME280;56357;52.304;4.870;2023-08-24T10:52:39;101615.25;;;25.65;54.49
69245;BME280;56357;52.304;4.870;2023-08-24T10:55:27;101623.44;;;26.48;52.57
69245;BME280;56357;52.304;4.870;2023-08-24T10:58:01;101637.59;;;27.10;50.79
69245;BME280;56357;52.304;4.870;2023-08-24T11:00:31;101643.16;;;27.38;50.17
69245;BME280;56357;52.304;4.870;2023-08-24T11:02:58;101639.53;;;27.46;50.15
69245;BME280;56357;52.304;4.870;2023-08-24T11:05:27;101618.41;;;27.38;50.06
69245;BME280;56357;52.304;4.870;2023-08-24T11:08:00;101631.94;;;27.33;50.23
69245;BME280;56357;52.304;4.870;2023-08-24T11:13:18;101637.31;;;27.65;50.00
69245;BME280;56357;52.304;4.870;2023-08-24T11:15:50;101636.00;;;27.71;49.55
69245;BME280;56357;52.304;4.870;2023-08-24T11:18:29;101614.78;;;27.77;49.80
69245;BME280;56357;52.304;4.870;2023-08-24T11:21:00;101604.22;;;26.80;52.19
69245;BME280;56357;52.304;4.870;2023-08-24T11:23:27;101599.84;;;26.11;54.65
69245;BME280;56357;52.304;4.870;2023-08-24T11:25:57;101584.91;;;25.92;55.34
69245;BME280;56357;52.304;4.870;2023-08-24T11:28:25;101593.53;;;25.87;55.66
69245;BME280;56357;52.304;4.870;2023-08-24T11:30:53;101573.88;;;25.77;56.64
69245;BME280;56357;52.304;4.870;2023-08-24T11:33:30;101568.72;;;25.79;56.79
69245;BME280;56357;52.304;4.870;2023-08-24T11:35:59;101555.25;;;25.71;56.58
69245;BME280;56357;52.304;4.870;2023-08-24T11:38:37;101548.97;;;25.61;57.22
69245;BME280;56357;52.304;4.870;2023-08-24T11:41:21;101545.59;;;25.59;56.99
69245;BME280;56357;52.304;4.870;2023-08-24T11:43:48;101538.66;;;25.65;56.24
69245;BME280;56357;52.304;4.870;2023-08-24T11:46:19;101546.41;;;25.86;55.66
69245;BME280;56357;52.304;4.870;2023-08-24T11:48:46;101545.81;;;25.89;55.71
69245;BME280;56357;52.304;4.870;2023-08-24T11:51:13;101537.50;;;25.66;57.48
69245;BME280;56357;52.304;4.870;2023-08-24T11:53:43;101530.91;;;25.70;58.64
69245;BME280;56357;52.304;4.870;2023-08-24T11:56:21;101526.56;;;25.73;58.95
69245;BME280;56357;52.304;4.870;2023-08-24T11:59:04;101516.78;;;25.92;58.12
69245;BME280;56357;52.304;4.870;2023-08-24T12:01:42;101511.09;;;25.92;57.90
69245;BME280;56357;52.304;4.870;2023-08-24T12:04:09;101518.56;;;25.88;58.28
69245;BME280;56357;52.304;4.870;2023-08-24T12:06:36;101527.06;;;25.88;58.22
69245;BME280;56357;52.304;4.870;2023-08-24T12:09:04;101523.72;;;25.86;58.78
69245;BME280;56357;52.304;4.870;2023-08-24T12:11:35;101520.34;;;25.84;58.81
69245;BME280;56357;52.304;4.870;2023-08-24T12:14:03;101513.84;;;25.84;59.34
69245;BME280;56357;52.304;4.870;2023-08-24T12:16:32;101508.19;;;25.70;59.38
69245;BME280;56357;52.304;4.870;2023-08-24T12:19:00;101509.84;;;25.85;58.67
69245;BME280;56357;52.304;4.870;2023-08-24T12:21:28;101487.69;;;25.73;59.61
69245;BME280;56357;52.304;4.870;2023-08-24T12:24:00;101500.41;;;25.76;59.39
69245;BME280;56357;52.304;4.870;2023-08-24T12:26:29;101491.44;;;25.82;59.04
69245;BME280;56357;52.304;4.870;2023-08-24T12:29:00;101478.59;;;25.98;57.71
69245;BME280;56357;52.304;4.870;2023-08-24T12:31:28;101463.25;;;25.99;57.67
69245;BME280;56357;52.304;4.870;2023-08-24T12:34:07;101454.97;;;25.89;57.93
69245;BME280;56357;52.304;4.870;2023-08-24T12:36:36;101443.00;;;25.79;58.58
69245;BME280;56357;52.304;4.870;2023-08-24T12:39:06;101424.19;;;25.83;58.16
69245;BME280;56357;52.304;4.870;2023-08-24T12:41:34;101429.34;;;25.81;58.01
69245;BME280;56357;52.304;4.870;2023-08-24T12:44:01;101436.81;;;25.77;58.35
69245;BME280;56357;52.304;4.870;2023-08-24T12:46:31;101436.19;;;25.80;58.10
69245;BME280;56357;52.304;4.870;2023-08-24T12:48:58;101424.53;;;25.68;58.78
69245;BME280;56357;52.304;4.870;2023-08-24T12:51:25;101426.22;;;25.69;58.61
69245;BME280;56357;52.304;4.870;2023-08-24T12:53:52;101411.44;;;25.58;59.04
69245;BME280;56357;52.304;4.870;2023-08-24T12:56:19;101405.72;;;25.72;58.01
69245;BME280;56357;52.304;4.870;2023-08-24T12:58:46;101408.47;;;25.63;58.97
69245;BME280;56357;52.304;4.870;2023-08-24T13:01:12;101417.16;;;25.67;58.65
69245;BME280;56357;52.304;4.870;2023-08-24T13:03:39;101398.28;;;25.62;58.70
69245;BME280;56357;52.304;4.870;2023-08-24T13:06:08;101413.03;;;25.51;59.66